Time;durP1;ratioP1;P1;durP2;ratioP2;P2;SDS_P1;SDS_P2;PMS_P1;PMS_P2;Temp;Humidity;BMP_temperature;BMP_pressure;BME280_temperature;BME280_humidity;BME280_pressure;Samples;Min_cycle;Max_cycle;Signal;HPM_P1;HPM_P2
2022/10/16 00:01:40;;;;;;;1.30;1.30;;;13.30;99.90;;;;;;5024330;28;20192;-59
2022/10/16 00:04:10;;;;;;;4.37;1.50;;;13.30;99.90;;;;;;5030712;28;20197;-59
2022/10/16 00:06:39;;;;;;;2.10;1.50;;;13.30;99.90;;;;;;5021511;28;20205;-59
2022/10/16 00:09:08;;;;;;;5.40;1.53;;;13.20;99.90;;;;;;5021609;28;20278;-60
2022/10/16 00:11:39;;;;;;;2.57;1.43;;;13.20;99.90;;;;;;5027027;28;20275;-59
2022/10/16 00:14:11;;;;;;;1.93;1.60;;;13.30;99.90;;;;;;5029219;28;20839;-59
2022/10/16 00:16:39;;;;;;;2.30;1.37;;;13.30;99.90;;;;;;5020871;28;20675;-59
2022/10/16 00:19:07;;;;;;;2.73;1.47;;;13.30;99.90;;;;;;5023341;28;20355;-59
2022/10/16 00:21:36;;;;;;;2.63;1.43;;;13.30;99.90;;;;;;5026747;28;20196;-59
2022/10/16 00:24:08;;;;;;;1.80;1.50;;;13.30;99.90;;;;;;5027149;28;20761;-59
2022/10/16 00:26:39;;;;;;;1.47;1.47;;;13.30;99.90;;;;;;5017757;28;20205;-59
2022/10/16 00:29:07;;;;;;;1.80;1.60;;;13.30;99.90;;;;;;5023590;28;20202;-59
2022/10/16 00:31:36;;;;;;;1.50;1.50;;;13.30;99.90;;;;;;5024161;28;20338;-59
2022/10/16 00:34:04;;;;;;;1.90;1.50;;;13.30;99.90;;;;;;5022514;28;20197;-59
2022/10/16 00:36:33;;;;;;;1.73;1.50;;;13.40;99.90;;;;;;5023346;28;20201;-59
2022/10/16 00:39:01;;;;;;;2.43;1.43;;;13.30;99.90;;;;;;5026331;28;20296;-59
2022/10/16 00:41:31;;;;;;;5.13;1.70;;;13.40;99.90;;;;;;5024742;28;20589;-59
2022/10/16 00:44:04;;;;;;;1.60;1.50;;;13.40;99.90;;;;;;5022784;28;20308;-59
2022/10/16 00:46:38;;;;;;;2.03;1.60;;;13.40;99.90;;;;;;5023164;28;20197;-59
2022/10/16 00:49:09;;;;;;;1.67;1.53;;;13.30;99.90;;;;;;5033188;28;21010;-59
2022/10/16 00:51:40;;;;;;;3.30;1.60;;;13.40;99.90;;;;;;5027605;28;20708;-59
2022/10/16 00:54:13;;;;;;;1.57;1.57;;;13.30;99.90;;;;;;5025079;28;20193;-59
2022/10/16 00:56:43;;;;;;;1.40;1.40;;;13.30;99.90;;;;;;5018824;28;20201;-59
2022/10/16 00:59:17;;;;;;;3.57;1.50;;;13.30;99.90;;;;;;5022022;28;20213;-59
2022/10/16 01:01:46;;;;;;;1.50;1.50;;;13.30;99.90;;;;;;5017136;28;20874;-59
2022/10/16 01:04:14;;;;;;;1.40;1.40;;;13.30;99.90;;;;;;5029950;28;20197;-59
2022/10/16 01:06:49;;;;;;;1.33;1.33;;;13.40;99.90;;;;;;5024272;28;20202;-59
2022/10/16 01:09:23;;;;;;;2.80;1.60;;;13.30;99.90;;;;;;5028583;28;20702;-59
2022/10/16 01:12:03;;;;;;;1.43;1.43;;;13.30;99.90;;;;;;5030811;28;20228;-59
2022/10/16 01:14:40;;;;;;;1.63;1.50;;;13.30;99.90;;;;;;5025534;28;20883;-59
2022/10/16 01:17:13;;;;;;;1.57;1.47;;;13.30;99.90;;;;;;5021573;28;20204;-59
2022/10/16 01:20:08;;;;;;;1.53;1.53;;;13.30;99.90;;;;;;5027396;28;20197;-59
2022/10/16 01:22:45;;;;;;;1.73;1.63;;;13.20;99.90;;;;;;5034549;28;20692;-59
2022/10/16 01:25:23;;;;;;;1.50;1.50;;;13.20;99.90;;;;;;5025524;28;20562;-59
2022/10/16 01:27:53;;;;;;;1.73;1.63;;;13.20;99.90;;;;;;5040262;28;20203;-59
2022/10/16 01:30:26;;;;;;;2.40;1.60;;;13.20;99.90;;;;;;5027674;28;20857;-59
2022/10/16 01:33:00;;;;;;;3.30;1.90;;;13.20;99.90;;;;;;5027771;28;20198;-59
2022/10/16 01:35:33;;;;;;;1.67;1.30;;;13.10;99.90;;;;;;5022121;28;20764;-59
2022/10/16 01:38:05;;;;;;;1.87;1.73;;;13.20;99.90;;;;;;5028141;28;20189;-59
2022/10/16 01:40:37;;;;;;;1.60;1.60;;;13.10;99.90;;;;;;5020925;28;20216;-59
2022/10/16 01:43:12;;;;;;;1.97;1.87;;;13.10;99.90;;;;;;5033058;28;20217;-59
2022/10/16 01:45:41;;;;;;;2.53;1.77;;;13.10;99.90;;;;;;5028959;28;20685;-59
2022/10/16 01:48:14;;;;;;;1.80;1.70;;;13.10;99.90;;;;;;5024760;28;20202;-59
2022/10/16 01:50:45;;;;;;;5.80;1.60;;;13.10;99.90;;;;;;5022645;28;20277;-59
2022/10/16 01:53:16;;;;;;;1.83;1.73;;;13.10;99.90;;;;;;5028951;28;20194;-59
2022/10/16 01:55:48;;;;;;;1.90;1.80;;;13.10;99.90;;;;;;5026248;28;20197;-59
2022/10/16 01:58:18;;;;;;;3.07;1.87;;;13.10;99.90;;;;;;5016485;28;20198;-59
2022/10/16 02:00:48;;;;;;;1.80;1.70;;;13.10;99.90;;;;;;5026884;28;20207;-59
2022/10/16 02:03:20;;;;;;;2.27;2.17;;;13.00;99.90;;;;;;5027423;28;20217;-59
2022/10/16 02:05:52;;;;;;;1.90;1.80;;;13.00;99.90;;;;;;5030579;28;20193;-59
2022/10/16 02:08:25;;;;;;;2.27;1.70;;;13.00;99.90;;;;;;5026384;28;20755;-59
2022/10/16 02:10:57;;;;;;;2.30;2.00;;;12.90;99.90;;;;;;5025419;28;20257;-59
2022/10/16 02:13:32;;;;;;;2.23;2.03;;;12.90;99.90;;;;;;5027664;28;20197;-59
2022/10/16 02:16:03;;;;;;;2.07;1.97;;;12.90;99.90;;;;;;5019768;28;20251;-59
2022/10/16 02:18:31;;;;;;;2.10;1.90;;;12.80;99.90;;;;;;5022066;28;20256;-59
2022/10/16 02:21:03;;;;;;;2.20;2.20;;;12.80;99.90;;;;;;5030947;28;20209;-60
2022/10/16 02:23:39;;;;;;;2.50;2.10;;;12.80;99.90;;;;;;5035088;28;20196;-59
2022/10/16 02:26:13;;;;;;;4.20;2.30;;;12.70;99.90;;;;;;5026730;28;20229;-59
2022/10/16 02:28:47;;;;;;;3.00;2.23;;;12.70;99.90;;;;;;5037081;28;20196;-59
2022/10/16 02:31:23;;;;;;;2.50;2.00;;;12.70;99.90;;;;;;5023011;28;20244;-59
2022/10/16 02:33:53;;;;;;;2.10;2.00;;;12.70;99.90;;;;;;5022228;28;20204;-59
2022/10/16 02:36:22;;;;;;;2.40;2.30;;;12.70;99.90;;;;;;5025927;28;20189;-59
2022/10/16 02:38:51;;;;;;;4.03;2.20;;;12.80;99.90;;;;;;5035633;28;20246;-59
2022/10/16 02:41:21;;;;;;;2.23;2.13;;;12.80;99.90;;;;;;5025904;28;20197;-59
2022/10/16 02:43:51;;;;;;;2.37;2.20;;;12.90;99.90;;;;;;5034436;28;20197;-59
2022/10/16 02:46:20;;;;;;;2.40;2.20;;;12.90;99.90;;;;;;5024321;28;20224;-60
2022/10/16 02:48:48;;;;;;;4.63;2.10;;;12.90;99.90;;;;;;5021841;28;20243;-59
2022/10/16 02:51:16;;;;;;;2.83;2.50;;;12.90;99.90;;;;;;5024172;28;20197;-59
2022/10/16 02:53:45;;;;;;;2.63;2.43;;;12.80;99.90;;;;;;5031579;28;20523;-59
2022/10/16 02:56:13;;;;;;;2.37;2.20;;;12.80;99.90;;;;;;5021319;28;20206;-59
2022/10/16 02:58:41;;;;;;;2.60;2.07;;;12.80;99.90;;;;;;5035981;28;20189;-59
2022/10/16 03:01:12;;;;;;;2.60;2.40;;;12.80;99.90;;;;;;5023615;28;20193;-59
2022/10/16 03:03:40;;;;;;;2.70;2.50;;;12.90;99.90;;;;;;5029125;28;20666;-59
2022/10/16 03:06:09;;;;;;;3.23;2.33;;;12.80;99.90;;;;;;5028680;28;20194;-59
2022/10/16 03:08:40;;;;;;;2.67;2.30;;;12.80;99.90;;;;;;5035871;28;20193;-59
2022/10/16 03:11:08;;;;;;;3.50;2.63;;;12.80;99.90;;;;;;5024646;28;20237;-59
2022/10/16 03:13:37;;;;;;;3.23;2.60;;;12.80;99.90;;;;;;5021497;28;20264;-59
2022/10/16 03:16:05;;;;;;;4.87;2.60;;;12.80;99.90;;;;;;5024936;28;20228;-59
2022/10/16 03:18:35;;;;;;;2.30;2.20;;;12.80;99.90;;;;;;5024228;28;20208;-59
2022/10/16 03:21:04;;;;;;;3.07;2.67;;;12.90;99.90;;;;;;5031808;28;20201;-59
2022/10/16 03:23:32;;;;;;;2.47;2.37;;;12.90;99.90;;;;;;5015713;28;20843;-59
2022/10/16 03:26:00;;;;;;;4.63;2.50;;;12.90;99.90;;;;;;5024367;28;20201;-59
2022/10/16 03:28:28;;;;;;;3.50;2.43;;;12.80;99.90;;;;;;5027851;28;20193;-59
2022/10/16 03:30:57;;;;;;;2.50;2.30;;;12.90;99.90;;;;;;5023446;28;20201;-59
2022/10/16 03:33:25;;;;;;;3.30;2.37;;;12.90;99.90;;;;;;5023011;28;20433;-59
2022/10/16 03:35:55;;;;;;;2.57;2.40;;;12.80;99.90;;;;;;5036480;28;20208;-59
2022/10/16 03:38:24;;;;;;;2.80;2.60;;;12.80;99.90;;;;;;5029889;28;20221;-59
2022/10/16 03:40:52;;;;;;;5.30;2.70;;;12.80;99.90;;;;;;5021695;28;20203;-59
2022/10/16 03:43:21;;;;;;;4.03;2.50;;;12.80;99.90;;;;;;5036299;28;20200;-59
2022/10/16 03:45:50;;;;;;;2.80;2.60;;;12.80;99.90;;;;;;5028128;28;20198;-59
2022/10/16 03:48:19;;;;;;;2.60;2.50;;;12.80;99.90;;;;;;5025238;28;20204;-59
2022/10/16 03:50:48;;;;;;;3.20;2.80;;;12.80;99.90;;;;;;5031818;28;20196;-59
2022/10/16 03:53:17;;;;;;;2.60;2.50;;;12.80;99.90;;;;;;5025408;28;20264;-59
2022/10/16 03:55:46;;;;;;;2.93;2.73;;;12.80;99.90;;;;;;5022993;28;20201;-59
2022/10/16 03:58:14;;;;;;;2.83;2.63;;;12.80;99.90;;;;;;5019035;28;20282;-59
2022/10/16 04:00:43;;;;;;;3.63;2.60;;;12.80;99.90;;;;;;5020318;28;20862;-59
2022/10/16 04:03:12;;;;;;;3.87;2.50;;;12.80;99.90;;;;;;5019615;28;20974;-59
2022/10/16 04:05:40;;;;;;;3.03;2.70;;;12.80;99.90;;;;;;5025286;28;20718;-59
2022/10/16 04:08:09;;;;;;;5.80;2.67;;;12.70;99.90;;;;;;5020906;28;20202;-59
2022/10/16 04:10:39;;;;;;;2.83;2.53;;;12.70;99.90;;;;;;5024383;28;20794;-59
2022/10/16 04:13:08;;;;;;;5.53;2.90;;;12.70;99.90;;;;;;5028091;28;20221;-59
2022/10/16 04:15:36;;;;;;;4.47;2.77;;;12.70;99.90;;;;;;5026476;28;20201;-59
2022/10/16 04:18:05;;;;;;;3.23;2.93;;;12.70;99.90;;;;;;5032291;28;20198;-59
2022/10/16 04:20:33;;;;;;;3.23;2.93;;;12.70;99.90;;;;;;5035387;28;20783;-59
2022/10/16 04:23:02;;;;;;;6.23;2.73;;;12.70;99.90;;;;;;5033391;28;20195;-59
2022/10/16 04:25:31;;;;;;;3.67;3.00;;;12.60;99.90;;;;;;5028535;28;20693;-59
2022/10/16 04:28:01;;;;;;;3.17;2.70;;;12.60;99.90;;;;;;5034888;28;20203;-59
2022/10/16 04:30:29;;;;;;;6.17;2.73;;;12.60;99.90;;;;;;5043802;28;20197;-59
2022/10/16 04:32:58;;;;;;;3.00;2.80;;;12.60;99.90;;;;;;5025389;28;20577;-59
2022/10/16 04:35:26;;;;;;;2.73;2.60;;;12.60;99.90;;;;;;5024992;28;20673;-59
2022/10/16 04:37:54;;;;;;;3.83;2.80;;;12.60;99.90;;;;;;5032255;28;20665;-59
2022/10/16 04:40:25;;;;;;;3.60;2.90;;;12.60;99.90;;;;;;5032200;28;20193;-59
2022/10/16 04:42:54;;;;;;;3.90;3.00;;;12.60;99.90;;;;;;5030592;28;20691;-59
2022/10/16 04:45:23;;;;;;;4.17;2.93;;;12.50;99.90;;;;;;5027566;28;20200;-59
2022/10/16 04:47:52;;;;;;;3.27;2.70;;;12.50;99.90;;;;;;5026292;28;20214;-59
2022/10/16 04:50:20;;;;;;;5.00;2.90;;;12.50;99.90;;;;;;5037203;28;20189;-59
2022/10/16 04:52:48;;;;;;;3.93;2.80;;;12.60;99.90;;;;;;5032034;28;20201;-59
2022/10/16 04:55:17;;;;;;;2.93;2.73;;;12.50;99.90;;;;;;5028857;28;20194;-59
2022/10/16 04:57:45;;;;;;;3.20;2.90;;;12.50;99.90;;;;;;5029793;28;20198;-59
2022/10/16 05:00:14;;;;;;;3.40;2.60;;;12.50;99.90;;;;;;5027215;28;20231;-59
2022/10/16 05:02:43;;;;;;;5.23;3.23;;;12.50;99.90;;;;;;5022039;28;20197;-59
2022/10/16 05:05:14;;;;;;;3.87;2.73;;;12.40;99.90;;;;;;5028550;28;20248;-59
2022/10/16 05:07:43;;;;;;;2.90;2.70;;;12.40;99.90;;;;;;5029334;28;20198;-59
2022/10/16 05:10:11;;;;;;;3.27;3.07;;;12.40;99.90;;;;;;5027181;28;20304;-59
2022/10/16 05:12:39;;;;;;;3.10;2.90;;;12.40;99.90;;;;;;5023946;28;20594;-59
2022/10/16 05:15:09;;;;;;;3.80;2.80;;;12.40;99.90;;;;;;5025680;28;20193;-59
2022/10/16 05:17:37;;;;;;;3.07;2.80;;;12.40;99.90;;;;;;5025407;28;20204;-59
2022/10/16 05:20:14;;;;;;;3.43;2.83;;;12.40;99.90;;;;;;5027646;28;20869;-59
2022/10/16 05:22:43;;;;;;;2.77;2.50;;;12.40;99.90;;;;;;5030142;28;20825;-59
2022/10/16 05:25:11;;;;;;;2.93;2.53;;;12.50;99.90;;;;;;5027097;28;20193;-59
2022/10/16 05:27:39;;;;;;;3.10;2.90;;;12.50;99.90;;;;;;5030980;28;20201;-59
2022/10/16 05:30:08;;;;;;;3.43;2.80;;;12.50;99.90;;;;;;5027656;28;20205;-59
2022/10/16 05:32:39;;;;;;;3.23;2.93;;;12.50;99.90;;;;;;5022420;28;20202;-59
2022/10/16 05:35:09;;;;;;;4.93;3.30;;;12.50;99.90;;;;;;5027333;28;20202;-59
2022/10/16 05:37:41;;;;;;;4.07;3.20;;;12.50;99.90;;;;;;5031793;28;20189;-59
2022/10/16 05:40:10;;;;;;;6.60;3.03;;;12.50;99.90;;;;;;5030278;28;20225;-59
2022/10/16 05:42:38;;;;;;;3.27;3.07;;;12.50;99.90;;;;;;5031602;28;20193;-59
2022/10/16 05:45:09;;;;;;;3.47;3.17;;;12.60;99.90;;;;;;5022193;28;20197;-59
2022/10/16 05:47:38;;;;;;;3.53;3.20;;;12.60;99.90;;;;;;5025292;28;20251;-59
2022/10/16 05:50:07;;;;;;;3.47;3.10;;;12.60;99.90;;;;;;5038180;28;20201;-59
2022/10/16 05:52:35;;;;;;;4.97;3.00;;;12.70;99.90;;;;;;5034052;28;20197;-59
2022/10/16 05:55:06;;;;;;;4.70;3.00;;;12.70;99.90;;;;;;5023125;28;20225;-59
2022/10/16 05:57:34;;;;;;;5.37;3.10;;;12.70;99.90;;;;;;5043288;28;20193;-59
2022/10/16 06:00:02;;;;;;;7.73;3.23;;;12.60;99.90;;;;;;5032426;28;20205;-59
2022/10/16 06:02:31;;;;;;;3.77;3.17;;;12.70;99.90;;;;;;5020986;28;20197;-59
2022/10/16 06:04:59;;;;;;;3.47;3.17;;;12.80;99.90;;;;;;5025133;28;20185;-59
2022/10/16 06:07:28;;;;;;;5.60;3.20;;;12.80;99.90;;;;;;5030583;28;20228;-59
2022/10/16 06:09:57;;;;;;;3.33;3.00;;;12.80;99.90;;;;;;5032485;28;20550;-59
2022/10/16 06:12:28;;;;;;;3.50;3.03;;;12.80;99.90;;;;;;5034834;28;20204;-59
2022/10/16 06:14:56;;;;;;;4.80;3.03;;;12.80;99.90;;;;;;5021955;28;20213;-59
2022/10/16 06:17:25;;;;;;;4.97;3.40;;;12.80;99.90;;;;;;5022926;28;20204;-59
2022/10/16 06:19:53;;;;;;;4.90;3.10;;;12.70;99.90;;;;;;5018928;28;20197;-60
2022/10/16 06:22:22;;;;;;;5.00;2.80;;;12.70;99.90;;;;;;5025448;28;21398;-60
2022/10/16 06:24:50;;;;;;;3.87;2.87;;;12.70;99.90;;;;;;5025092;28;21212;-60
2022/10/16 06:27:18;;;;;;;5.27;2.90;;;12.70;99.90;;;;;;5030110;28;20247;-60
2022/10/16 06:29:48;;;;;;;3.67;3.00;;;12.70;99.90;;;;;;5028042;28;20197;-59
2022/10/16 06:32:17;;;;;;;4.80;3.23;;;12.70;99.90;;;;;;5024539;28;20212;-59
2022/10/16 06:34:45;;;;;;;6.67;3.73;;;12.70;99.90;;;;;;5024396;28;20209;-59
2022/10/16 06:37:13;;;;;;;5.50;3.43;;;12.70;99.90;;;;;;5023141;28;20190;-59
2022/10/16 06:39:42;;;;;;;4.00;2.77;;;12.70;99.90;;;;;;5022161;28;20213;-59
2022/10/16 06:42:10;;;;;;;4.00;3.03;;;12.70;99.90;;;;;;5021339;28;20654;-59
2022/10/16 06:44:41;;;;;;;5.23;2.83;;;12.70;99.90;;;;;;5029392;28;20205;-59
2022/10/16 06:47:11;;;;;;;5.23;3.07;;;12.70;99.90;;;;;;5018592;28;20296;-58
2022/10/16 06:49:39;;;;;;;3.87;3.23;;;12.70;99.90;;;;;;5027933;28;20998;-59
2022/10/16 06:52:07;;;;;;;4.33;3.30;;;12.70;99.90;;;;;;5023096;28;20193;-59
2022/10/16 06:54:36;;;;;;;5.07;3.13;;;12.70;99.90;;;;;;5023933;28;20866;-59
2022/10/16 06:57:09;;;;;;;3.40;3.00;;;12.70;99.90;;;;;;5031218;28;20204;-59
2022/10/16 06:59:38;;;;;;;3.40;3.17;;;12.80;99.90;;;;;;5029722;28;20198;-59
2022/10/16 07:02:06;;;;;;;3.37;3.17;;;12.80;99.90;;;;;;5024483;28;20201;-59
2022/10/16 07:04:37;;;;;;;3.43;3.13;;;12.70;99.90;;;;;;5029571;28;20629;-59
2022/10/16 07:07:05;;;;;;;3.50;3.20;;;12.80;99.90;;;;;;5024345;28;20201;-59
2022/10/16 07:09:36;;;;;;;4.10;3.30;;;12.90;99.90;;;;;;5039992;28;20231;-59
2022/10/16 07:12:07;;;;;;;5.30;3.40;;;13.00;99.90;;;;;;5031018;28;20201;-59
2022/10/16 07:14:35;;;;;;;5.77;2.83;;;13.10;99.90;;;;;;5026059;28;20217;-59
2022/10/16 07:17:03;;;;;;;5.00;3.10;;;13.20;99.90;;;;;;5027276;28;20645;-59
2022/10/16 07:19:32;;;;;;;5.97;3.10;;;13.20;99.90;;;;;;5020893;28;22175;-59
2022/10/16 07:22:03;;;;;;;4.63;3.23;;;13.40;99.90;;;;;;5013221;28;20589;-59
2022/10/16 07:24:31;;;;;;;3.30;3.00;;;13.40;99.90;;;;;;5013542;28;20231;-59
2022/10/16 07:26:59;;;;;;;3.00;2.80;;;13.50;99.90;;;;;;5021194;28;20197;-59
2022/10/16 07:29:27;;;;;;;2.90;2.70;;;13.60;99.90;;;;;;5018837;28;20204;-59
2022/10/16 07:31:56;;;;;;;3.00;2.47;;;13.70;99.90;;;;;;5019495;28;20192;-59
2022/10/16 07:34:25;;;;;;;3.87;2.70;;;13.80;99.90;;;;;;5019526;28;20661;-59
2022/10/16 07:36:54;;;;;;;3.50;2.63;;;13.90;99.90;;;;;;5017331;28;20193;-59
2022/10/16 07:39:23;;;;;;;3.70;2.63;;;14.00;99.90;;;;;;5021486;28;20217;-59
2022/10/16 07:41:52;;;;;;;5.07;3.13;;;14.10;99.90;;;;;;5018245;28;20781;-59
2022/10/16 07:44:20;;;;;;;3.23;2.57;;;14.20;99.90;;;;;;5021289;28;20194;-59
2022/10/16 07:46:48;;;;;;;2.90;2.50;;;14.20;99.90;;;;;;5019881;28;20216;-59
2022/10/16 07:49:17;;;;;;;2.47;2.30;;;14.40;99.90;;;;;;5022480;28;20197;-59
2022/10/16 07:51:45;;;;;;;3.57;2.60;;;14.50;99.90;;;;;;5021418;28;20224;-59
2022/10/16 07:54:13;;;;;;;3.53;2.40;;;14.50;99.90;;;;;;5020705;28;20243;-59
2022/10/16 07:56:43;;;;;;;3.03;2.23;;;14.60;99.90;;;;;;5022765;28;20205;-59
2022/10/16 07:59:12;;;;;;;6.17;2.30;;;14.60;99.90;;;;;;5021331;28;20205;-59
2022/10/16 08:01:41;;;;;;;3.10;2.80;;;14.80;99.90;;;;;;5024192;28;21762;-59
2022/10/16 08:04:10;;;;;;;2.83;2.23;;;14.80;99.90;;;;;;5020896;28;20206;-59
2022/10/16 08:06:40;;;;;;;3.50;2.20;;;14.80;99.90;;;;;;5018556;28;20210;-59
2022/10/16 08:09:12;;;;;;;2.83;2.63;;;14.90;99.90;;;;;;5020694;28;20194;-59
2022/10/16 08:11:40;;;;;;;4.60;2.47;;;14.90;99.90;;;;;;5028770;28;20205;-59
2022/10/16 08:14:10;;;;;;;3.27;2.70;;;15.00;99.90;;;;;;5021526;28;20193;-59
2022/10/16 08:16:38;;;;;;;3.47;2.23;;;15.10;99.90;;;;;;5025235;28;20665;-59
2022/10/16 08:19:07;;;;;;;5.13;2.57;;;15.10;99.90;;;;;;5025927;28;20676;-59
2022/10/16 08:21:35;;;;;;;2.63;2.43;;;15.20;99.90;;;;;;5027959;28;20193;-59
2022/10/16 08:24:04;;;;;;;2.37;2.27;;;15.20;99.90;;;;;;5022721;28;20201;-59
2022/10/16 08:26:32;;;;;;;2.40;2.10;;;15.40;99.90;;;;;;5014676;28;20198;-59
2022/10/16 08:29:00;;;;;;;2.47;2.23;;;15.40;99.90;;;;;;5021631;28;20207;-59
2022/10/16 08:31:30;;;;;;;3.13;2.50;;;15.50;99.90;;;;;;5022295;28;20213;-59
2022/10/16 08:33:59;;;;;;;2.43;2.20;;;15.60;99.90;;;;;;5020537;28;20214;-59
2022/10/16 08:36:27;;;;;;;2.60;2.40;;;15.60;99.90;;;;;;5018449;28;20293;-59
2022/10/16 08:38:55;;;;;;;2.80;2.20;;;15.60;99.90;;;;;;5018692;28;20242;-59
2022/10/16 08:42:02;;;;;;;2.53;2.33;;;15.60;99.90;;;;;;5022935;28;20206;-59
2022/10/16 08:45:02;;;;;;;4.53;2.10;;;15.80;99.90;;;;;;4999194;28;20215;-59
2022/10/16 08:47:46;;;;;;;4.80;2.53;;;15.90;99.90;;;;;;5018888;28;20202;-59
2022/10/16 08:50:22;;;;;;;2.20;2.10;;;16.10;99.90;;;;;;5021678;28;20198;-59
2022/10/16 08:52:51;;;;;;;3.70;1.90;;;16.10;99.90;;;;;;5021113;28;20194;-59
2022/10/16 08:55:32;;;;;;;5.63;2.30;;;16.10;99.90;;;;;;5024447;28;20217;-59
2022/10/16 08:58:01;;;;;;;4.10;2.13;;;16.10;99.90;;;;;;5019923;28;20194;-60
2022/10/16 09:00:30;;;;;;;6.57;1.83;;;16.20;99.90;;;;;;5025204;28;20202;-60
2022/10/16 09:03:11;;;;;;;3.17;2.00;;;16.30;99.90;;;;;;5022473;28;20203;-59
2022/10/16 09:05:58;;;;;;;5.53;2.20;;;16.40;99.90;;;;;;5015063;28;20204;-61
2022/10/16 09:08:36;;;;;;;5.03;2.10;;;16.40;99.90;;;;;;5023061;28;20197;-61
2022/10/16 09:11:15;;;;;;;3.77;1.93;;;16.40;99.90;;;;;;5029446;28;20820;-60
2022/10/16 09:13:51;;;;;;;4.20;2.10;;;16.50;99.90;;;;;;5020863;28;21499;-60
2022/10/16 09:16:24;;;;;;;2.27;2.00;;;16.50;99.90;;;;;;5018094;28;20203;-60
2022/10/16 09:19:05;;;;;;;4.77;2.30;;;16.60;99.90;;;;;;5022734;28;20575;-60
2022/10/16 09:21:39;;;;;;;1.83;1.70;;;16.70;99.90;;;;;;5024263;28;20206;-60
2022/10/16 09:24:14;;;;;;;6.27;2.03;;;16.80;99.90;;;;;;5030237;28;20586;-60
2022/10/16 09:26:42;;;;;;;4.80;1.87;;;16.80;99.90;;;;;;5038380;28;20233;-61
2022/10/16 09:29:13;;;;;;;6.10;1.87;;;16.80;99.90;;;;;;5026994;28;20196;-61
2022/10/16 09:31:42;;;;;;;3.70;1.83;;;16.90;99.90;;;;;;5024535;28;20211;-60
2022/10/16 09:34:25;;;;;;;3.47;1.67;;;16.90;99.90;;;;;;5024508;28;20197;-60
2022/10/16 09:36:53;;;;;;;6.90;2.60;;;17.00;99.90;;;;;;5024772;28;20209;-61
2022/10/16 09:39:21;;;;;;;6.10;2.13;;;17.20;99.90;;;;;;5025316;28;20749;-60
2022/10/16 09:41:49;;;;;;;3.73;2.03;;;17.30;99.90;;;;;;5023899;28;20197;-60
2022/10/16 09:44:23;;;;;;;2.00;1.80;;;17.40;99.90;;;;;;5022753;28;20252;-60
2022/10/16 09:47:02;;;;;;;10.50;1.50;;;17.50;99.90;;;;;;5026745;28;20205;-60
2022/10/16 09:49:32;;;;;;;6.17;1.90;;;17.50;99.90;;;;;;5022666;28;20205;-61
2022/10/16 09:52:12;;;;;;;7.17;1.83;;;17.70;99.90;;;;;;5022854;28;20837;-61
2022/10/16 09:54:53;;;;;;;3.13;1.53;;;17.80;99.90;;;;;;5028706;28;20189;-60
2022/10/16 09:57:22;;;;;;;5.93;1.83;;;17.80;99.90;;;;;;5019390;28;20205;-60
2022/10/16 09:59:52;;;;;;;3.20;1.80;;;17.80;99.90;;;;;;5024968;28;21159;-60
2022/10/16 10:02:30;;;;;;;3.67;1.70;;;17.80;99.90;;;;;;5019539;28;20232;-60
2022/10/16 10:05:00;;;;;;;5.07;1.73;;;17.90;99.90;;;;;;5013082;28;20570;-61
2022/10/16 10:07:33;;;;;;;2.77;1.80;;;18.10;99.90;;;;;;5018684;28;20221;-61
2022/10/16 10:10:07;;;;;;;4.17;1.60;;;18.10;99.90;;;;;;5037337;28;20229;-61
2022/10/16 10:12:36;;;;;;;3.80;1.97;;;18.20;99.90;;;;;;5016918;28;20208;-61
2022/10/16 10:15:08;;;;;;;3.13;1.80;;;18.20;99.90;;;;;;5022767;28;20244;-60
2022/10/16 10:17:47;;;;;;;4.80;1.80;;;18.30;99.90;;;;;;5025640;28;20566;-60
2022/10/16 10:20:25;;;;;;;3.53;1.90;;;18.50;99.90;;;;;;5021481;28;20209;-60
2022/10/16 10:22:54;;;;;;;4.03;1.70;;;18.60;99.90;;;;;;5017548;28;20201;-60
2022/10/16 10:25:47;;;;;;;3.27;2.07;;;18.50;99.90;;;;;;5019515;28;20212;-60
2022/10/16 10:28:25;;;;;;;3.70;1.70;;;18.30;99.90;;;;;;5022611;28;20185;-60
2022/10/16 10:31:01;;;;;;;8.00;1.97;;;18.00;99.90;;;;;;5019955;28;20604;-60
2022/10/16 10:33:39;;;;;;;2.90;2.00;;;18.10;99.90;;;;;;5019688;28;20215;-60
2022/10/16 10:36:23;;;;;;;3.97;1.90;;;18.20;99.90;;;;;;5027079;28;20569;-60
2022/10/16 10:38:56;;;;;;;4.63;2.00;;;18.40;99.90;;;;;;5020558;28;20225;-60
2022/10/16 10:41:52;;;;;;;2.20;1.80;;;18.50;99.90;;;;;;5022823;28;20208;-60
2022/10/16 10:44:31;;;;;;;2.57;2.00;;;18.70;99.90;;;;;;5019818;28;20810;-60
2022/10/16 10:47:13;;;;;;;2.17;1.90;;;18.80;99.90;;;;;;5014548;28;20201;-60
2022/10/16 10:49:54;;;;;;;2.33;2.00;;;18.60;99.90;;;;;;5033830;28;20197;-60
2022/10/16 10:52:43;;;;;;;8.43;2.00;;;18.60;99.90;;;;;;5021052;28;20199;-60
2022/10/16 10:55:20;;;;;;;6.87;1.90;;;18.70;99.90;;;;;;5022612;28;20204;-61
2022/10/16 10:58:02;;;;;;;4.07;2.00;;;19.00;99.90;;;;;;5023168;28;20224;-61
2022/10/16 11:00:43;;;;;;;3.63;1.80;;;19.10;99.90;;;;;;5023811;28;20694;-61
2022/10/16 11:03:25;;;;;;;3.77;1.87;;;19.10;99.90;;;;;;5019732;28;21880;-61
2022/10/16 11:05:57;;;;;;;6.07;1.80;;;19.30;99.90;;;;;;5025025;28;20205;-61
2022/10/16 11:08:33;;;;;;;3.80;1.60;;;19.50;99.90;;;;;;5022298;28;20201;-61
2022/10/16 11:11:05;;;;;;;3.70;2.03;;;19.60;99.90;;;;;;5020565;28;20233;-61
2022/10/16 11:13:41;;;;;;;4.60;1.70;;;19.70;99.90;;;;;;5022803;28;21119;-61
2022/10/16 11:16:16;;;;;;;5.03;1.63;;;19.60;99.90;;;;;;5024095;28;20210;-61
2022/10/16 11:18:56;;;;;;;3.70;1.80;;;19.60;99.90;;;;;;5020864;28;20197;-61
2022/10/16 11:21:27;;;;;;;5.60;2.03;;;19.80;99.90;;;;;;5020693;28;20911;-61
2022/10/16 11:24:05;;;;;;;4.60;1.87;;;19.90;99.90;;;;;;5024219;28;20198;-61
2022/10/16 11:26:40;;;;;;;3.30;1.63;;;20.00;99.90;;;;;;5021164;28;20202;-62
2022/10/16 11:29:16;;;;;;;6.37;1.60;;;20.20;99.90;;;;;;5018390;28;20263;-62
2022/10/16 11:31:49;;;;;;;5.07;1.80;;;20.20;99.90;;;;;;5026565;28;20279;-62
2022/10/16 11:34:23;;;;;;;2.33;1.50;;;20.30;99.90;;;;;;5032662;28;20208;-61
2022/10/16 11:36:56;;;;;;;4.43;1.63;;;20.60;99.90;;;;;;5030426;28;20250;-62
2022/10/16 11:39:29;;;;;;;2.13;1.67;;;20.70;99.90;;;;;;5024347;28;20228;-62
2022/10/16 11:42:04;;;;;;;3.83;1.70;;;20.40;99.90;;;;;;5024203;28;20299;-62
2022/10/16 11:44:45;;;;;;;3.67;1.77;;;20.20;99.90;;;;;;5016163;28;20194;-61
2022/10/16 11:47:26;;;;;;;4.20;1.57;;;20.10;99.90;;;;;;5029319;28;20920;-62
2022/10/16 11:50:23;;;;;;;5.03;1.73;;;20.30;99.90;;;;;;5029653;28;20188;-62
2022/10/16 11:53:00;;;;;;;2.37;1.43;;;20.30;99.90;;;;;;5026678;28;20185;-62
2022/10/16 11:55:35;;;;;;;6.17;1.70;;;20.40;99.90;;;;;;5026803;28;20190;-62
2022/10/16 11:58:09;;;;;;;4.67;1.73;;;20.60;99.90;;;;;;5022053;28;20294;-62
2022/10/16 12:00:46;;;;;;;3.17;1.53;;;20.70;99.90;;;;;;5034207;28;20192;-62
2022/10/16 12:03:22;;;;;;;4.97;1.57;;;20.40;99.90;;;;;;5020481;28;20558;-62
2022/10/16 12:06:01;;;;;;;3.70;1.60;;;20.10;99.90;;;;;;5022019;28;20522;-61
2022/10/16 12:08:29;;;;;;;2.73;1.30;;;20.10;99.90;;;;;;5026479;28;20204;-62
2022/10/16 12:11:09;;;;;;;3.37;1.57;;;20.40;99.90;;;;;;5018626;28;20229;-61
2022/10/16 12:13:39;;;;;;;2.60;1.50;;;20.40;99.90;;;;;;5028186;28;20206;-61
2022/10/16 12:16:23;;;;;;;3.60;1.60;;;20.40;99.90;;;;;;5019675;28;20206;-62
2022/10/16 12:19:11;;;;;;;5.70;1.77;;;20.50;99.90;;;;;;5018374;28;20200;-61
2022/10/16 12:21:40;;;;;;;6.13;1.80;;;20.50;99.90;;;;;;5019568;28;20198;-61
2022/10/16 12:24:24;;;;;;;1.60;1.43;;;20.50;99.90;;;;;;5025133;28;20193;-61
2022/10/16 12:26:55;;;;;;;4.17;1.60;;;20.40;99.90;;;;;;5017346;28;20603;-62
2022/10/16 12:29:33;;;;;;;4.43;1.70;;;20.50;99.90;;;;;;5023195;28;20600;-61
2022/10/16 12:32:03;;;;;;;4.77;1.73;;;20.80;99.90;;;;;;5023995;28;20573;-61
2022/10/16 12:34:40;;;;;;;2.93;1.37;;;21.00;99.90;;;;;;5024116;28;20554;-61
2022/10/16 12:37:15;;;;;;;3.10;1.73;;;21.10;99.90;;;;;;5033515;28;20220;-61
2022/10/16 12:39:47;;;;;;;1.97;1.50;;;21.20;99.90;;;;;;5019797;28;20594;-61
2022/10/16 12:42:33;;;;;;;2.60;1.30;;;21.20;99.90;;;;;;5030341;28;20280;-61
2022/10/16 12:45:02;;;;;;;2.07;1.50;;;21.00;99.90;;;;;;5026791;28;20205;-61
2022/10/16 12:47:47;;;;;;;3.43;1.33;;;20.80;99.90;;;;;;5032563;28;20545;-61
2022/10/16 12:50:34;;;;;;;3.53;1.40;;;20.80;99.90;;;;;;5015974;28;20247;-61
2022/10/16 12:53:05;;;;;;;2.17;1.20;;;20.60;99.90;;;;;;5023855;28;20189;-61
2022/10/16 12:55:44;;;;;;;2.77;1.37;;;20.40;99.90;;;;;;5041178;28;20193;-61
2022/10/16 12:58:45;;;;;;;3.80;1.20;;;20.20;99.90;;;;;;5030358;28;20215;-61
2022/10/16 13:01:31;;;;;;;2.53;1.43;;;20.10;99.90;;;;;;5023767;28;20221;-61
2022/10/16 13:04:31;;;;;;;1.20;1.10;;;20.10;99.90;;;;;;5025404;28;20669;-61
2022/10/16 13:07:13;;;;;;;2.03;1.20;;;20.20;99.90;;;;;;5028586;28;20193;-61
2022/10/16 13:09:53;;;;;;;1.43;1.03;;;20.20;99.90;;;;;;5026298;28;20225;-61
2022/10/16 13:12:49;;;;;;;2.77;1.40;;;20.20;99.90;;;;;;5023509;28;20223;-61
2022/10/16 13:15:49;;;;;;;1.30;1.20;;;20.00;99.90;;;;;;5024367;28;20201;-61